Overview Statistics Trail Chart Weather Telemetry Raw packets
 

This is the latest recevied weather packets stored in our database for station/object KQ7A. If no packets are shown the sender has not sent any weather packets the latest 10 day(s).

<< 83 84 85 86 87 88 89 >>
Time Temp. Humidity Pressure Rain* Wind** Luminosity Snow
1788074799 13.33° C 44% 1018.8 hPa 0 mm - 0 W/m² -
1788074498 13.33° C 48% 1018.8 hPa 0 mm - 0 W/m² -
1788074194 13.33° C 46% 1018.6 hPa 0 mm - 0 W/m² -
1788073892 13.89° C 47% 1018.5 hPa 0 mm - 0 W/m² -
1788073587 13.89° C 45% 1018.3 hPa 0 mm - 0 W/m² -
1788073282 12.78° C 48% 1018.6 hPa 0 mm - 0 W/m² -
1788072975 13.89° C 45% 1018.8 hPa 0 mm - 0 W/m² -
1788072674 13.33° C 46% 1018.8 hPa 0 mm - 0 W/m² -
1788072368 13.89° C 46% 1018.6 hPa 0 mm - 0 W/m² -
1788072063 15° C 42% 1018.5 hPa 0 mm - 0 W/m² -
1788071758 16.67° C 40% 1018.5 hPa 0 mm - 0 W/m² -
1788071457 15.56° C 39% 1019 hPa 0 mm - 0 W/m² -
1788071151 13.33° C 44% 1018.8 hPa 0 mm - 0 W/m² -
1788070846 13.33° C 47% 1018.8 hPa 0 mm - 0 W/m² -
1788070540 13.33° C 47% 1018.9 hPa 0 mm - 0 W/m² -
1788070237 13.33° C 45% 1018.9 hPa 0 mm - 0 W/m² -
1788069933 12.78° C 49% 1018.8 hPa 0 mm - 0 W/m² -
1788069629 13.89° C 47% 1019 hPa 0 mm - 0 W/m² -
1788069324 13.89° C 44% 1018.9 hPa 0 mm - 0 W/m² -
1788069020 13.33° C 46% 1018.8 hPa 0 mm - 0 W/m² -
1788068715 12.78° C 48% 1018.8 hPa 0 mm - 0 W/m² -
1788068411 13.33° C 49% 1019 hPa 0 mm - 0 W/m² -
1788068106 13.33° C 48% 1018.9 hPa 0 mm - 0 W/m² -
1788067805 12.78° C 51% 1019.2 hPa 0 mm - 0 W/m² -
1788067501 13.33° C 47% 1019.2 hPa 0 mm - 0 W/m² -

* Rain latest hour (hover to see other rain measurements)
** Current wind speed in m/s (hover to see current wind gust speed)